Time;durP1;ratioP1;P1;durP2;ratioP2;P2;SDS_P1;SDS_P2;PMS_P1;PMS_P2;Temp;Humidity;BMP_temperature;BMP_pressure;BME280_temperature;BME280_humidity;BME280_pressure;Samples;Min_cycle;Max_cycle;Signal;HPM_P1;HPM_P2
2022/01/28 00:01:03;;;;;;;26.00;14.40;;;;;;;-1.31;77.45;100830.45;108613;1249;70373;-84
2022/01/28 00:03:39;;;;;;;26.60;13.20;;;;;;;-1.34;78.24;100834.27;108748;1249;72474;-84
2022/01/28 00:06:08;;;;;;;23.40;12.80;;;;;;;-1.34;77.88;100832.06;108526;1248;62577;-83
2022/01/28 00:08:37;;;;;;;26.90;13.30;;;;;;;-1.35;77.77;100835.65;108561;1249;59317;-84
2022/01/28 00:11:06;;;;;;;23.70;12.90;;;;;;;-1.33;77.52;100836.65;108484;1249;72479;-85
2022/01/28 00:13:39;;;;;;;26.40;13.70;;;;;;;-1.34;77.76;100833.94;108621;1248;69595;-84
2022/01/28 00:19:12;;;;;;;20.50;11.90;;;;;;;-1.31;77.56;100836.27;108656;1249;73987;-87
2022/01/28 00:38:35;;;;;;;21.00;12.10;;;;;;;-1.24;77.15;100812.20;107728;1249;60447;-86
2022/01/28 00:41:04;;;;;;;23.50;12.30;;;;;;;-1.22;77.05;100812.32;107835;1247;60056;-85
2022/01/28 00:43:34;;;;;;;21.50;12.40;;;;;;;-1.23;77.16;100806.38;107715;1249;74083;-84
2022/01/28 00:46:03;;;;;;;25.50;12.40;;;;;;;-1.22;77.24;100808.39;106935;1250;815656;-85
2022/01/28 00:48:32;;;;;;;23.40;12.40;;;;;;;-1.22;77.11;100803.61;107613;1249;67507;-84
2022/01/28 00:51:01;;;;;;;21.00;12.20;;;;;;;-1.23;77.11;100799.17;107400;1251;72330;-86
2022/01/28 00:53:30;;;;;;;24.00;12.90;;;;;;;-1.25;77.11;100798.04;107413;1249;62005;-87
2022/01/28 00:56:00;;;;;;;27.80;12.10;;;;;;;-1.28;76.92;100793.48;107609;1249;61949;-84
2022/01/28 00:58:29;;;;;;;21.10;12.00;;;;;;;-1.31;76.98;100787.92;107395;1249;75069;-86
2022/01/28 01:00:58;;;;;;;23.50;11.30;;;;;;;-1.34;77.05;100785.40;107617;1249;70875;-85
2022/01/28 01:03:27;;;;;;;23.30;11.40;;;;;;;-1.37;76.62;100778.30;107536;1249;69223;-85
2022/01/28 01:05:57;;;;;;;22.60;12.10;;;;;;;-1.42;76.44;100779.97;107579;1249;74264;-86
2022/01/28 01:08:26;;;;;;;23.80;12.10;;;;;;;-1.49;76.01;100774.80;107469;1249;59850;-86
2022/01/28 01:10:55;;;;;;;21.90;11.50;;;;;;;-1.58;76.13;100768.17;107551;1249;61763;-83
2022/01/28 01:13:24;;;;;;;25.50;12.50;;;;;;;-1.63;76.69;100764.35;107546;1249;73961;-85
2022/01/28 01:15:57;;;;;;;24.50;11.30;;;;;;;-1.65;76.99;100761.64;107374;1249;73700;-77
2022/01/28 01:18:38;;;;;;;24.20;12.40;;;;;;;-1.67;77.26;100756.05;107634;1249;67958;-85
2022/01/28 01:21:13;;;;;;;24.50;11.40;;;;;;;-1.71;77.29;100757.34;107610;1249;73942;-85
2022/01/28 01:23:50;;;;;;;22.60;11.80;;;;;;;-1.75;76.81;100753.17;107440;1250;59573;-85
2022/01/28 01:26:27;;;;;;;20.80;10.90;;;;;;;-1.81;76.89;100754.83;107732;1247;58836;-85
2022/01/28 01:28:56;;;;;;;20.40;10.10;;;;;;;-1.86;76.59;100760.05;107628;1249;71730;-86
2022/01/28 01:31:25;;;;;;;25.50;11.60;;;;;;;-1.94;76.30;100759.86;107696;1247;70368;-85
2022/01/28 01:34:01;;;;;;;23.10;10.50;;;;;;;-1.97;76.70;100766.25;107782;1246;70616;-79
2022/01/28 01:36:31;;;;;;;22.90;11.20;;;;;;;-1.95;77.08;100765.17;107694;1248;75687;-86
2022/01/28 01:39:01;;;;;;;22.40;11.10;;;;;;;-1.95;77.87;100759.02;107725;1247;59137;-86
2022/01/28 01:41:43;;;;;;;19.50;11.10;;;;;;;-1.94;78.76;100763.63;107655;1250;60526;-88
2022/01/28 01:44:32;;;;;;;24.50;12.20;;;;;;;-1.89;77.69;100761.96;108006;1248;72413;-85
2022/01/28 01:52:44;;;;;;;21.10;12.20;;;;;;;-1.78;78.44;100757.32;108375;1250;74493;-85
2022/01/28 01:55:13;;;;;;;22.10;12.00;;;;;;;-1.70;78.56;100753.90;107994;1248;61608;-85
2022/01/28 01:57:44;;;;;;;23.20;12.70;;;;;;;-1.62;78.56;100752.38;107780;1247;61772;-85
2022/01/28 02:00:15;;;;;;;20.60;10.90;;;;;;;-1.57;78.31;100748.51;107675;1250;76055;-85
2022/01/28 02:02:50;;;;;;;20.20;10.80;;;;;;;-1.54;78.22;100751.17;107476;1250;73032;-84
2022/01/28 02:05:19;;;;;;;22.00;11.20;;;;;;;-1.55;78.15;100749.64;107304;1250;69507;-82
2022/01/28 02:07:48;;;;;;;20.10;10.90;;;;;;;-1.50;78.02;100748.88;107537;1249;71844;-85
2022/01/28 02:10:17;;;;;;;22.10;11.70;;;;;;;-1.44;78.01;100747.89;107553;1249;59887;-85
2022/01/28 02:12:52;;;;;;;25.00;11.40;;;;;;;-1.42;78.13;100743.39;107530;1249;59685;-86
2022/01/28 02:15:21;;;;;;;21.90;10.80;;;;;;;-1.39;77.92;100749.13;107377;1249;75055;-86
2022/01/28 02:17:50;;;;;;;21.90;10.70;;;;;;;-1.38;77.99;100745.00;107547;1249;71468;-86
2022/01/28 02:20:33;;;;;;;18.50;10.50;;;;;;;-1.37;77.80;100742.61;107536;1247;71215;-84
2022/01/28 02:23:04;;;;;;;19.10;10.40;;;;;;;-1.31;77.89;100738.88;107379;1249;74840;-83
2022/01/28 02:25:34;;;;;;;25.20;10.70;;;;;;;-1.26;77.41;100735.66;107444;1249;62152;-86
2022/01/28 02:28:07;;;;;;;21.00;10.50;;;;;;;-1.20;77.71;100740.84;107373;1249;61108;-85
2022/01/28 02:30:37;;;;;;;23.60;10.60;;;;;;;-1.16;77.38;100744.66;107410;1249;74417;-85
2022/01/28 02:33:18;;;;;;;21.30;10.40;;;;;;;-1.13;76.97;100745.27;107348;1249;71265;-86
2022/01/28 02:35:49;;;;;;;20.40;10.70;;;;;;;-1.12;76.81;100745.61;107438;1249;69972;-88
2022/01/28 02:38:22;;;;;;;21.80;11.10;;;;;;;-1.13;76.70;100745.30;107426;1249;73478;-87
2022/01/28 02:40:59;;;;;;;21.00;10.40;;;;;;;-1.11;77.12;100749.01;107565;1248;62537;-87
2022/01/28 02:43:41;;;;;;;19.80;10.80;;;;;;;-1.07;77.22;100743.27;107485;1250;59267;-86
2022/01/28 02:46:16;;;;;;;19.60;11.50;;;;;;;-1.08;77.47;100734.05;107515;1249;74006;-87
2022/01/28 02:48:59;;;;;;;18.00;9.90;;;;;;;-1.03;77.50;100733.09;107527;1250;72658;-86
2022/01/28 02:51:29;;;;;;;24.80;10.30;;;;;;;-1.03;78.00;100736.85;107581;1250;69471;-83
2022/01/28 02:54:00;;;;;;;20.20;10.20;;;;;;;-1.02;78.10;100737.84;107684;1249;73566;-88
2022/01/28 02:59:07;;;;;;;21.80;11.60;;;;;;;-1.01;78.12;100730.48;108578;1249;60483;-87
2022/01/28 03:01:37;;;;;;;22.60;11.30;;;;;;;-1.02;78.13;100730.50;108433;1249;75363;-86
2022/01/28 03:04:08;;;;;;;19.80;11.30;;;;;;;-1.01;78.07;100728.09;107536;1250;71095;-91
2022/01/28 03:06:37;;;;;;;21.30;12.10;;;;;;;-1.01;78.18;100727.39;107387;1250;68140;-85
2022/01/28 03:09:17;;;;;;;22.50;12.00;;;;;;;-0.99;77.95;100723.41;107343;1249;71655;-85
2022/01/28 03:12:00;;;;;;;24.50;12.40;;;;;;;-0.98;78.00;100719.46;107609;1249;59106;-87
2022/01/28 03:14:47;;;;;;;25.90;12.60;;;;;;;-0.99;78.27;100719.13;107582;1249;60428;-85
2022/01/28 03:17:50;;;;;;;22.90;12.60;;;;;;;-0.97;78.18;100718.23;107716;1249;74935;-84
2022/01/28 03:22:48;;;;;;;21.30;11.10;;;;;;;-0.95;78.14;100714.43;108229;1249;69892;-85
2022/01/28 03:25:17;;;;;;;24.10;13.70;;;;;;;-0.92;78.12;100718.11;107507;1250;72469;-85
2022/01/28 03:30:15;;;;;;;20.70;11.90;;;;;;;-0.90;78.04;100719.27;107286;1249;58967;-87
2022/01/28 03:32:45;;;;;;;22.20;13.10;;;;;;;-0.90;78.09;100721.33;107352;1249;71737;-84
2022/01/28 03:35:31;;;;;;;20.80;10.40;;;;;;;-0.91;78.03;100713.81;107286;1249;72527;-84
2022/01/28 03:38:01;;;;;;;21.30;11.60;;;;;;;-0.94;78.44;100715.45;107348;1249;69848;-85
2022/01/28 03:40:36;;;;;;;24.40;11.50;;;;;;;-0.91;78.42;100715.88;107453;1249;71439;-86
2022/01/28 03:43:06;;;;;;;26.60;12.60;;;;;;;-0.89;78.45;100713.41;107360;1248;60577;-87
2022/01/28 03:45:36;;;;;;;23.40;11.60;;;;;;;-0.88;78.06;100712.88;107462;1249;59471;-86
2022/01/28 03:48:05;;;;;;;19.70;10.40;;;;;;;-0.88;77.77;100714.59;107403;1250;74983;-87
2022/01/28 03:50:34;;;;;;;20.60;11.00;;;;;;;-0.90;78.19;100720.45;107465;1249;71294;-87
2022/01/28 03:53:06;;;;;;;24.30;11.50;;;;;;;-0.88;77.99;100721.42;107338;1249;68752;-83
2022/01/28 03:55:35;;;;;;;21.90;12.70;;;;;;;-0.84;77.84;100724.73;107543;1249;73327;-86
2022/01/28 03:58:04;;;;;;;25.70;13.40;;;;;;;-0.81;77.60;100720.54;107326;1249;59391;-85
2022/01/28 04:00:34;;;;;;;32.00;14.80;;;;;;;-0.81;77.15;100712.86;107261;1249;59994;-84
2022/01/28 04:03:36;;;;;;;25.30;13.70;;;;;;;-0.77;76.57;100712.95;107446;1247;73716;-77
2022/01/28 04:11:28;;;;;;;33.40;18.00;;;;;;;-0.75;77.15;100718.73;107365;1249;72096;-86
2022/01/28 04:14:25;;;;;;;33.70;18.40;;;;;;;-0.75;77.36;100712.71;107443;1250;61539;-88
2022/01/28 04:19:36;;;;;;;26.90;14.40;;;;;;;-0.72;77.43;100714.69;107559;1248;73941;-88
2022/01/28 04:22:05;;;;;;;25.50;13.40;;;;;;;-0.67;77.01;100717.99;107460;1249;70137;-84
2022/01/28 04:24:34;;;;;;;22.90;11.90;;;;;;;-0.65;77.06;100725.27;107453;1250;70006;-88
2022/01/28 04:27:03;;;;;;;25.40;13.40;;;;;;;-0.64;76.99;100717.90;107458;1250;74107;-87
2022/01/28 04:29:33;;;;;;;24.30;12.90;;;;;;;-0.63;77.13;100720.96;107648;1248;61693;-85
2022/01/28 04:32:03;;;;;;;21.50;12.70;;;;;;;-0.61;77.30;100726.55;107685;1248;62210;-86
2022/01/28 04:34:33;;;;;;;22.40;12.90;;;;;;;-0.61;76.91;100726.71;107774;1248;73473;-86
2022/01/28 04:58:56;;;;;;;20.70;12.20;;;;;;;-0.41;76.90;100722.59;107730;1248;74704;-86
2022/01/28 05:27:47;;;;;;;27.10;13.90;;;;;;;-0.13;76.93;100743.75;108490;1250;66910;-89
2022/01/28 05:30:16;;;;;;;25.80;14.10;;;;;;;-0.11;75.72;100744.04;108027;1248;72411;-89
2022/01/28 05:32:45;;;;;;;25.10;13.50;;;;;;;-0.07;76.05;100745.46;107710;1249;59548;-88
2022/01/28 05:35:14;;;;;;;29.10;14.90;;;;;;;-0.04;75.74;100741.09;107776;1247;60006;-89
2022/01/28 05:37:43;;;;;;;29.00;14.70;;;;;;;0.01;75.59;100741.65;107638;1249;72181;-88
2022/01/28 05:40:12;;;;;;;26.90;13.70;;;;;;;0.01;75.22;100742.86;107577;1250;68977;-88
2022/01/28 05:42:41;;;;;;;24.70;12.40;;;;;;;0.03;75.33;100737.33;107772;1248;70469;-88
2022/01/28 05:45:10;;;;;;;26.10;13.80;;;;;;;0.03;75.24;100730.80;107715;1248;71900;-89
2022/01/28 05:47:39;;;;;;;31.60;16.80;;;;;;;0.06;74.88;100732.95;107685;1248;60915;-88
2022/01/28 05:50:09;;;;;;;32.40;16.80;;;;;;;0.09;75.48;100732.33;107741;1248;59554;-88
2022/01/28 05:52:38;;;;;;;34.50;19.00;;;;;;;0.11;75.69;100732.29;107656;1249;73627;-89
2022/01/28 05:55:08;;;;;;;47.70;25.10;;;;;;;0.15;75.71;100736.28;107636;1249;69728;-89
2022/01/28 05:57:38;;;;;;;32.00;16.90;;;;;;;0.14;75.52;100735.42;107686;1250;69788;-90
2022/01/28 06:00:08;;;;;;;26.00;14.40;;;;;;;0.14;74.98;100736.82;107620;1250;75239;-86
2022/01/28 06:02:45;;;;;;;27.20;15.30;;;;;;;0.12;75.23;100739.45;107923;1247;60711;-87
2022/01/28 06:05:15;;;;;;;23.30;13.20;;;;;;;0.13;75.53;100738.39;108179;1247;60254;-87
2022/01/28 06:07:44;;;;;;;26.90;14.10;;;;;;;0.18;75.89;100742.17;108434;1247;73607;-89
2022/01/28 06:10:17;;;;;;;24.20;11.90;;;;;;;0.23;75.59;100744.61;108004;1247;70977;-85
2022/01/28 06:12:50;;;;;;;22.30;12.00;;;;;;;0.27;74.38;100746.39;107738;1248;68743;-89
2022/01/28 06:15:19;;;;;;;22.60;11.20;;;;;;;0.32;74.97;100745.20;107594;1249;73699;-89
2022/01/28 06:17:48;;;;;;;23.50;12.10;;;;;;;0.36;74.49;100749.90;107706;1249;60029;-91
2022/01/28 06:20:19;;;;;;;27.70;15.50;;;;;;;0.43;74.69;100751.39;107718;1247;61675;-85
2022/01/28 06:22:49;;;;;;;48.70;21.80;;;;;;;0.58;73.12;100755.07;107842;1250;73857;-90
2022/01/28 06:25:18;;;;;;;33.00;18.30;;;;;;;0.60;73.44;100750.70;108497;1250;69046;-90
2022/01/28 06:27:48;;;;;;;37.50;18.30;;;;;;;0.56;73.71;100746.04;108316;1248;69875;-92
2022/01/28 06:30:18;;;;;;;31.20;16.80;;;;;;;0.47;73.11;100742.55;108555;1247;74323;-80
2022/01/28 06:32:57;;;;;;;30.30;16.10;;;;;;;0.35;73.39;100731.41;109674;1247;59695;-86
2022/01/28 06:35:26;;;;;;;39.00;19.90;;;;;;;0.27;74.27;100728.05;109612;1249;60792;-89
2022/01/28 06:37:55;;;;;;;38.30;22.20;;;;;;;0.25;74.40;100725.70;108649;1250;73437;-89
2022/01/28 06:40:25;;;;;;;42.40;22.70;;;;;;;0.32;74.59;100724.98;107755;1250;70246;-88
2022/01/28 06:42:54;;;;;;;43.40;23.60;;;;;;;0.39;74.62;100721.02;107900;1247;69791;-90
2022/01/28 06:45:23;;;;;;;43.30;22.90;;;;;;;0.40;74.79;100713.61;107893;1247;73896;-89
2022/01/28 06:47:52;;;;;;;43.90;22.20;;;;;;;0.48;74.76;100711.66;108242;1247;59129;-91
2022/01/28 06:50:22;;;;;;;40.50;23.20;;;;;;;0.54;75.04;100711.14;108689;1247;60426;-90
2022/01/28 06:52:51;;;;;;;43.00;21.50;;;;;;;0.57;74.29;100701.10;108573;1247;72146;-90
2022/01/28 06:55:20;;;;;;;49.40;28.50;;;;;;;0.56;74.04;100692.92;107988;1248;70727;-88
2022/01/28 06:57:49;;;;;;;45.90;26.20;;;;;;;0.59;74.35;100686.64;107920;1250;66903;-91
2022/01/28 07:00:19;;;;;;;47.70;28.80;;;;;;;0.67;74.05;100687.59;107862;1248;74403;-90
2022/01/28 07:02:49;;;;;;;48.50;28.40;;;;;;;0.67;73.59;100679.70;107811;1249;60733;-89
2022/01/28 07:05:19;;;;;;;51.30;31.00;;;;;;;0.73;73.40;100673.85;107917;1248;62095;-91
2022/01/28 07:07:48;;;;;;;55.90;31.30;;;;;;;0.83;72.93;100671.98;107746;1248;73326;-94
2022/01/28 07:10:17;;;;;;;52.90;29.40;;;;;;;0.95;72.93;100672.95;107798;1247;71389;-90
2022/01/28 07:12:47;;;;;;;52.80;27.00;;;;;;;1.05;71.91;100672.95;107862;1248;70237;-91
2022/01/28 07:15:16;;;;;;;53.80;27.80;;;;;;;1.18;71.62;100674.92;107764;1250;74838;-89
2022/01/28 07:17:45;;;;;;;46.80;26.90;;;;;;;1.30;70.36;100668.52;107788;1247;60604;-90
2022/01/28 07:20:14;;;;;;;52.00;29.10;;;;;;;1.43;70.54;100662.55;107537;1248;62723;-83
2022/01/28 07:22:43;;;;;;;45.90;27.70;;;;;;;1.54;69.84;100653.94;107739;1248;75299;-90
2022/01/28 07:25:12;;;;;;;54.60;29.70;;;;;;;1.67;70.60;100649.84;107951;1247;72619;-93
2022/01/28 07:27:41;;;;;;;48.60;29.90;;;;;;;1.76;70.20;100648.98;107914;1250;70931;-90
2022/01/28 07:30:11;;;;;;;48.40;27.20;;;;;;;1.80;69.56;100646.11;108535;1248;74317;-89
2022/01/28 07:32:49;;;;;;;44.50;23.60;;;;;;;1.87;70.67;100641.90;109089;1250;59027;-86
2022/01/28 07:35:20;;;;;;;38.50;23.50;;;;;;;1.93;68.19;100642.36;109161;1248;60144;-88
2022/01/28 07:37:49;;;;;;;45.90;24.40;;;;;;;2.02;67.83;100640.34;108324;1250;75493;-88
2022/01/28 07:40:19;;;;;;;42.70;25.90;;;;;;;2.06;66.82;100647.04;108210;1250;71270;-88
2022/01/28 07:42:48;;;;;;;45.60;25.80;;;;;;;2.14;67.45;100664.95;108038;1250;68669;-87
2022/01/28 07:45:17;;;;;;;40.30;23.90;;;;;;;2.17;66.24;100666.36;107978;1247;73039;-89
2022/01/28 07:47:47;;;;;;;41.10;23.90;;;;;;;2.29;67.27;100678.09;107832;1248;60531;-89
2022/01/28 07:50:16;;;;;;;43.60;25.30;;;;;;;2.35;66.43;100686.10;108084;1249;60906;-86
2022/01/28 07:52:46;;;;;;;40.60;24.70;;;;;;;2.37;65.78;100685.52;107749;1250;73105;-88
2022/01/28 07:55:16;;;;;;;42.30;22.80;;;;;;;2.43;65.45;100676.35;107566;1251;71110;-78
2022/01/28 07:57:45;;;;;;;39.50;20.80;;;;;;;2.54;65.97;100671.45;107465;1249;71679;-81
2022/01/28 08:00:16;;;;;;;32.30;19.00;;;;;;;2.67;67.87;100667.48;107267;1250;72381;-83
2022/01/28 08:02:44;;;;;;;33.10;19.20;;;;;;;2.77;67.01;100661.08;107337;1250;60441;-85
2022/01/28 08:05:14;;;;;;;35.90;19.10;;;;;;;2.86;66.62;100652.09;107601;1248;61085;-82
2022/01/28 08:07:44;;;;;;;25.70;14.80;;;;;;;2.95;65.10;100657.23;107182;1250;73882;-83
2022/01/28 08:10:16;;;;;;;25.40;13.50;;;;;;;3.02;63.19;100653.35;107592;1249;71928;-83
2022/01/28 08:12:52;;;;;;;22.70;14.40;;;;;;;3.05;62.34;100642.90;107587;1248;70486;-81
2022/01/28 08:15:22;;;;;;;27.60;14.70;;;;;;;3.16;63.77;100645.67;107472;1250;71660;-89
2022/01/28 08:17:51;;;;;;;28.30;13.60;;;;;;;3.22;62.90;100648.53;107616;1250;59578;-85
2022/01/28 08:20:20;;;;;;;38.00;21.10;;;;;;;3.28;63.09;100652.75;107613;1250;59467;-82
2022/01/28 08:22:59;;;;;;;42.30;20.60;;;;;;;3.28;63.45;100653.96;107735;1248;74419;-82
2022/01/28 08:25:34;;;;;;;38.20;22.30;;;;;;;3.09;62.22;100649.77;107793;1249;72042;-87
2022/01/28 08:28:05;;;;;;;41.10;22.70;;;;;;;2.81;62.62;100646.48;108197;1247;71807;-89
2022/01/28 08:30:39;;;;;;;49.80;24.00;;;;;;;2.90;62.84;100645.55;108245;1248;72725;-90
2022/01/28 08:33:08;;;;;;;46.00;24.80;;;;;;;2.89;63.39;100647.48;107991;1250;59505;-84
2022/01/28 08:35:39;;;;;;;49.10;29.00;;;;;;;2.76;64.24;100654.74;107419;1251;59279;-89
2022/01/28 08:38:17;;;;;;;48.30;29.20;;;;;;;2.32;65.39;100657.86;107615;1249;72932;-90
2022/01/28 08:40:46;;;;;;;59.60;30.50;;;;;;;2.23;66.93;100662.88;107718;1249;70397;-84
2022/01/28 08:43:15;;;;;;;59.30;30.90;;;;;;;2.09;67.45;100669.05;107586;1250;68821;-86
2022/01/28 08:45:45;;;;;;;58.00;31.00;;;;;;;1.97;67.96;100669.69;107811;1249;73119;-84
2022/01/28 08:48:14;;;;;;;50.60;28.40;;;;;;;2.01;68.34;100666.79;107608;1248;62555;-77
2022/01/28 08:50:43;;;;;;;57.90;30.00;;;;;;;2.03;68.69;100669.31;107271;1249;60066;-76
2022/01/28 08:53:13;;;;;;;56.10;30.70;;;;;;;2.17;68.79;100672.37;107276;1250;73410;-71
2022/01/28 08:55:43;;;;;;;52.00;30.10;;;;;;;2.34;68.47;100674.96;107266;1249;72443;-73
2022/01/28 08:58:12;;;;;;;50.20;28.80;;;;;;;2.47;67.30;100671.21;107790;1249;70324;-91
2022/01/28 09:00:45;;;;;;;47.00;27.80;;;;;;;2.60;66.54;100671.73;107712;1250;72370;-89
2022/01/28 09:03:16;;;;;;;50.90;26.90;;;;;;;2.78;66.80;100670.50;107618;1249;60591;-75
2022/01/28 09:05:46;;;;;;;47.90;25.60;;;;;;;2.95;66.34;100670.48;107729;1249;60245;-83
2022/01/28 09:08:14;;;;;;;47.70;23.90;;;;;;;3.10;66.37;100669.35;107813;1249;73610;-80
2022/01/28 09:10:57;;;;;;;55.90;25.90;;;;;;;3.22;65.44;100675.86;107655;1250;68791;-87
2022/01/28 09:13:37;;;;;;;45.10;24.00;;;;;;;3.38;65.65;100678.30;108436;1247;68713;-89
2022/01/28 09:16:06;;;;;;;40.20;21.90;;;;;;;3.39;62.74;100677.55;108953;1250;72339;-88
2022/01/28 09:18:35;;;;;;;44.80;24.60;;;;;;;3.38;62.49;100679.69;108043;1250;59368;-89
2022/01/28 09:21:04;;;;;;;41.70;25.20;;;;;;;3.44;62.63;100672.70;107936;1250;59517;-89
2022/01/28 09:23:33;;;;;;;50.50;26.80;;;;;;;3.58;63.06;100669.00;107801;1249;72749;-91
2022/01/28 09:26:03;;;;;;;48.40;26.70;;;;;;;3.63;62.34;100666.86;107713;1250;72215;-91
2022/01/28 09:28:32;;;;;;;47.60;24.40;;;;;;;3.70;61.75;100668.61;108208;1248;69191;-89
2022/01/28 09:31:01;;;;;;;48.30;25.60;;;;;;;3.89;61.53;100668.13;107915;1247;74237;-85
2022/01/28 09:33:30;;;;;;;40.10;23.30;;;;;;;4.08;61.46;100667.27;108156;1247;60343;-90
2022/01/28 09:35:59;;;;;;;46.90;24.10;;;;;;;4.35;62.79;100663.25;108072;1250;60971;-89
2022/01/28 09:38:28;;;;;;;51.60;26.50;;;;;;;4.66;62.28;100658.49;108011;1248;74457;-88
2022/01/28 09:41:01;;;;;;;47.50;24.80;;;;;;;4.80;59.23;100650.90;108055;1250;70646;-90
2022/01/28 09:43:31;;;;;;;53.10;26.00;;;;;;;5.00;58.75;100644.36;107881;1249;66929;-88
2022/01/28 09:46:03;;;;;;;42.70;23.50;;;;;;;5.28;60.86;100642.10;108060;1249;72202;-88
2022/01/28 09:48:32;;;;;;;43.90;22.50;;;;;;;5.50;60.45;100637.52;107929;1247;60460;-90
2022/01/28 09:51:03;;;;;;;38.80;22.50;;;;;;;5.68;58.51;100634.80;108108;1248;61162;-89
2022/01/28 09:53:33;;;;;;;39.80;21.60;;;;;;;5.76;55.77;100636.80;107813;1250;73297;-90
2022/01/28 09:56:02;;;;;;;27.40;13.80;;;;;;;5.88;55.68;100631.69;107768;1250;72854;-94
2022/01/28 09:58:31;;;;;;;20.50;12.10;;;;;;;6.22;56.74;100631.41;107780;1250;70167;-89
2022/01/28 10:01:04;;;;;;;26.10;14.10;;;;;;;6.38;55.41;100633.27;107553;1248;73911;-90
2022/01/28 10:03:36;;;;;;;19.10;11.30;;;;;;;6.32;54.64;100630.64;107690;1250;61651;-85
2022/01/28 10:06:05;;;;;;;22.70;13.70;;;;;;;6.17;55.10;100629.42;107469;1249;62528;-87
2022/01/28 10:08:35;;;;;;;23.60;12.30;;;;;;;5.90;55.66;100630.87;107436;1249;73166;-84
2022/01/28 10:11:11;;;;;;;18.80;10.80;;;;;;;5.94;55.54;100624.27;107740;1250;72289;-87
2022/01/28 10:13:52;;;;;;;23.80;12.00;;;;;;;5.72;56.07;100618.17;107565;1250;69612;-83
2022/01/28 10:16:29;;;;;;;19.50;11.60;;;;;;;5.48;56.11;100614.98;107625;1249;71978;-85
2022/01/28 10:19:05;;;;;;;25.20;12.00;;;;;;;5.47;57.12;100606.35;107700;1250;59609;-85
2022/01/28 10:21:43;;;;;;;23.00;12.20;;;;;;;5.45;56.53;100609.42;107645;1250;60214;-86
2022/01/28 10:24:12;;;;;;;25.40;13.70;;;;;;;5.53;58.01;100611.58;107624;1250;73602;-86
2022/01/28 10:26:46;;;;;;;20.20;12.10;;;;;;;5.51;58.82;100609.08;107848;1250;69593;-90
2022/01/28 10:29:42;;;;;;;;;;;;;;;5.56;58.42;100607.29;108182;1247;70907;-77
2022/01/28 10:32:14;;;;;;;22.00;11.40;;;;;;;5.57;58.29;100600.14;109206;1247;73366;-83
2022/01/28 10:34:51;;;;;;;17.40;11.40;;;;;;;5.70;58.29;100596.52;108198;1251;59503;-86
2022/01/28 10:37:29;;;;;;;25.00;13.60;;;;;;;5.76;56.55;100596.39;107767;1250;60497;-87
2022/01/28 10:40:11;;;;;;;14.70;8.40;;;;;;;5.81;56.57;100595.90;107813;1248;75881;-88
2022/01/28 10:42:52;;;;;;;19.00;10.20;;;;;;;5.84;55.29;100597.33;107903;1247;71122;-87
2022/01/28 10:45:28;;;;;;;13.60;8.90;;;;;;;5.87;55.56;100595.96;107554;1250;68533;-85
2022/01/28 10:48:00;;;;;;;15.70;9.40;;;;;;;5.88;55.43;100594.16;107639;1248;73465;-86
2022/01/28 10:50:36;;;;;;;18.00;10.90;;;;;;;5.98;55.63;100583.98;107638;1250;58983;-86
2022/01/28 10:53:12;;;;;;;15.10;10.00;;;;;;;6.08;56.14;100587.05;107555;1250;59759;-84
2022/01/28 10:55:46;;;;;;;15.10;9.00;;;;;;;6.16;55.63;100588.67;108003;1249;74400;-83
2022/01/28 10:58:20;;;;;;;15.10;10.10;;;;;;;6.22;54.69;100595.80;107567;1248;72214;-77
2022/01/28 11:00:57;;;;;;;16.40;9.90;;;;;;;6.25;54.25;100599.41;107467;1250;71809;-87
2022/01/28 11:03:27;;;;;;;16.20;9.30;;;;;;;6.21;53.82;100597.54;107611;1247;73954;-88
2022/01/28 11:06:02;;;;;;;15.40;8.10;;;;;;;6.19;53.90;100600.23;107670;1248;60241;-86
2022/01/28 11:08:34;;;;;;;18.30;9.10;;;;;;;6.23;52.75;100598.27;108158;1250;60838;-87
2022/01/28 11:11:03;;;;;;;16.70;9.30;;;;;;;6.24;52.15;100597.73;107633;1250;74478;-84
2022/01/28 11:13:33;;;;;;;20.00;9.60;;;;;;;6.17;52.59;100593.98;107533;1248;71863;-86
2022/01/28 11:16:03;;;;;;;17.70;8.80;;;;;;;6.20;53.57;100595.21;107487;1250;69286;-88
2022/01/28 11:18:32;;;;;;;18.30;9.00;;;;;;;6.28;53.51;100591.82;107730;1248;74314;-89
2022/01/28 11:21:06;;;;;;;15.50;6.90;;;;;;;6.36;52.58;100587.87;107502;1249;60326;-87
2022/01/28 11:24:35;;;;;;;15.30;9.00;;;;;;;6.41;52.77;100581.89;107631;1248;59569;-87
2022/01/28 11:27:14;;;;;;;18.30;8.90;;;;;;;6.45;51.68;100583.19;107533;1250;71683;-84
2022/01/28 11:29:43;;;;;;;18.80;8.80;;;;;;;6.34;52.31;100584.89;107484;1250;69573;-86
2022/01/28 11:32:17;;;;;;;15.50;9.10;;;;;;;6.29;52.71;100584.98;107548;1250;70014;-89
2022/01/28 11:35:10;;;;;;;13.80;8.50;;;;;;;6.28;52.86;100585.92;107323;1250;73964;-86
2022/01/28 11:37:39;;;;;;;16.10;8.20;;;;;;;6.30;52.73;100582.49;107588;1248;60003;-84
2022/01/28 11:40:15;;;;;;;15.30;8.50;;;;;;;6.41;52.07;100581.55;107444;1250;61835;-86
2022/01/28 11:42:44;;;;;;;14.60;7.50;;;;;;;6.61;52.72;100574.64;107490;1249;73987;-86
2022/01/28 11:45:13;;;;;;;15.90;8.10;;;;;;;6.94;52.39;100572.06;107598;1247;69550;-84
2022/01/28 11:48:03;;;;;;;15.00;7.70;;;;;;;7.09;51.64;100571.32;107533;1251;68736;-85
2022/01/28 11:50:32;;;;;;;13.00;7.10;;;;;;;7.39;49.94;100566.91;107655;1250;72202;-86
2022/01/28 11:53:01;;;;;;;14.20;8.60;;;;;;;7.41;49.33;100566.98;107483;1250;60846;-87
2022/01/28 11:55:31;;;;;;;12.80;8.00;;;;;;;7.48;49.83;100566.52;107655;1247;61605;-85
2022/01/28 11:58:11;;;;;;;14.40;7.80;;;;;;;7.43;48.22;100564.42;107659;1248;74905;-85
2022/01/28 12:00:47;;;;;;;13.40;8.10;;;;;;;7.33;48.52;100563.98;108958;1250;71486;-83
2022/01/28 12:03:31;;;;;;;15.00;9.10;;;;;;;7.33;48.81;100566.39;107390;1250;67800;-87
2022/01/28 12:06:10;;;;;;;18.80;9.00;;;;;;;7.40;48.85;100562.17;107688;1248;73249;-85
2022/01/28 12:08:41;;;;;;;13.50;7.40;;;;;;;7.39;49.03;100560.13;107576;1247;61085;-85
2022/01/28 12:11:12;;;;;;;15.90;8.10;;;;;;;7.36;48.77;100559.50;107651;1250;60326;-84
2022/01/28 12:14:00;;;;;;;13.20;7.70;;;;;;;7.34;48.17;100561.98;107626;1250;74477;-85
2022/01/28 12:16:34;;;;;;;16.20;8.70;;;;;;;7.23;49.08;100557.88;107437;1250;71223;-84
2022/01/28 12:19:22;;;;;;;14.50;8.70;;;;;;;7.12;48.84;100558.16;108059;1250;70348;-87
2022/01/28 12:22:10;;;;;;;15.50;8.00;;;;;;;6.95;49.39;100560.55;108067;1250;72018;-84
2022/01/28 12:24:39;;;;;;;15.80;9.40;;;;;;;6.82;49.44;100561.71;107616;1250;58906;-90
2022/01/28 12:27:13;;;;;;;16.70;9.40;;;;;;;6.64;50.13;100564.12;107832;1247;59510;-89
2022/01/28 12:29:50;;;;;;;11.40;7.50;;;;;;;6.57;50.40;100571.13;107645;1247;71747;-85
2022/01/28 12:32:24;;;;;;;10.40;7.40;;;;;;;6.28;51.34;100582.45;107450;1251;69657;-87
2022/01/28 12:34:53;;;;;;;12.00;6.50;;;;;;;6.04;52.55;100589.70;107739;1250;68749;-93
2022/01/28 12:37:24;;;;;;;8.90;5.10;;;;;;;5.73;54.37;100593.96;107955;1248;71203;-91
2022/01/28 12:40:02;;;;;;;9.70;6.60;;;;;;;5.57;55.05;100581.63;107489;1251;59637;-88
2022/01/28 12:42:34;;;;;;;9.80;6.20;;;;;;;5.12;57.41;100579.73;107516;1248;59551;-82
2022/01/28 12:45:04;;;;;;;8.60;6.30;;;;;;;5.19;57.47;100585.06;107131;1250;407217;-88
2022/01/28 12:47:34;;;;;;;10.00;7.20;;;;;;;5.10;58.01;100596.40;107601;1248;72023;-88
2022/01/28 12:50:05;;;;;;;10.80;6.80;;;;;;;4.94;59.15;100595.30;107719;1247;70321;-87
2022/01/28 12:52:36;;;;;;;9.30;6.20;;;;;;;4.95;59.33;100588.37;107401;1248;76330;-82
2022/01/28 12:55:06;;;;;;;10.40;5.60;;;;;;;4.86;60.02;100568.63;107364;1251;60221;-80
2022/01/28 12:57:45;;;;;;;11.00;7.30;;;;;;;4.91;60.09;100549.55;107511;1250;60179;-83
2022/01/28 13:00:16;;;;;;;8.70;5.50;;;;;;;4.85;61.02;100554.36;107256;1248;72692;-84
2022/01/28 13:02:50;;;;;;;10.40;6.30;;;;;;;5.00;60.05;100550.48;107257;1251;70924;-85